Time;durP1;ratioP1;P1;durP2;ratioP2;P2;SDS_P1;SDS_P2;PMS_P1;PMS_P2;Temp;Humidity;BMP_temperature;BMP_pressure;BME280_temperature;BME280_humidity;BME280_pressure;Samples;Min_cycle;Max_cycle;Signal;HPM_P1;HPM_P2
2021/01/30 00:02:21;;;;;;;0.2;0.2;;;;;;;;;;;;;
2021/01/30 00:04:48;;;;;;;0.4;0.4;;;;;;;;;;;;;
2021/01/30 00:07:13;;;;;;;0.3;0.2;;;;;;;;;;;;;
2021/01/30 00:09:38;;;;;;;0.6;0.5;;;;;;;;;;;;;
2021/01/30 00:12:03;;;;;;;2.5;1.3;;;;;;;;;;;;;
2021/01/30 00:14:28;;;;;;;2.3;1;;;;;;;;;;;;;
2021/01/30 00:16:56;;;;;;;0.6;0.6;;;;;;;;;;;;;
2021/01/30 00:19:21;;;;;;;5.3;0.8;;;;;;;;;;;;;
2021/01/30 00:21:46;;;;;;;1.9;0.9;;;;;;;;;;;;;
2021/01/30 00:24:11;;;;;;;2.7;1.4;;;;;;;;;;;;;
2021/01/30 00:26:37;;;;;;;2.4;1.3;;;;;;;;;;;;;
2021/01/30 00:29:02;;;;;;;1.9;1.2;;;;;;;;;;;;;
2021/01/30 00:31:27;;;;;;;0.8;0.8;;;;;;;;;;;;;
2021/01/30 00:33:52;;;;;;;2;1.3;;;;;;;;;;;;;
2021/01/30 00:36:17;;;;;;;4.1;1;;;;;;;;;;;;;
2021/01/30 00:38:42;;;;;;;2.6;1.3;;;;;;;;;;;;;
2021/01/30 00:41:09;;;;;;;3.3;1;;;;;;;;;;;;;
2021/01/30 00:43:34;;;;;;;1.5;1.2;;;;;;;;;;;;;
2021/01/30 00:46:00;;;;;;;2.2;1;;;;;;;;;;;;;
2021/01/30 00:48:25;;;;;;;1.1;0.6;;;;;;;;;;;;;
2021/01/30 00:50:52;;;;;;;1.2;0.8;;;;;;;;;;;;;
2021/01/30 00:53:18;;;;;;;0.8;0.6;;;;;;;;;;;;;
2021/01/30 00:55:44;;;;;;;0.6;0.5;;;;;;;;;;;;;
2021/01/30 00:58:09;;;;;;;0.7;0.4;;;;;;;;;;;;;
2021/01/30 01:00:34;;;;;;;1.3;1;;;;;;;;;;;;;
2021/01/30 01:02:59;;;;;;;1.4;0.8;;;;;;;;;;;;;
2021/01/30 01:05:25;;;;;;;0.9;0.7;;;;;;;;;;;;;
2021/01/30 01:07:50;;;;;;;1;0.6;;;;;;;;;;;;;
2021/01/30 01:10:17;;;;;;;2;0.7;;;;;;;;;;;;;
2021/01/30 01:12:42;;;;;;;0.3;0.3;;;;;;;;;;;;;
2021/01/30 01:15:10;;;;;;;0.3;0.3;;;;;;;;;;;;;
2021/01/30 01:17:35;;;;;;;0.8;0.6;;;;;;;;;;;;;
2021/01/30 01:20:00;;;;;;;1.2;0.8;;;;;;;;;;;;;
2021/01/30 01:22:25;;;;;;;0.5;0.5;;;;;;;;;;;;;
2021/01/30 01:24:51;;;;;;;0.7;0.7;;;;;;;;;;;;;
2021/01/30 01:27:17;;;;;;;0.9;0.6;;;;;;;;;;;;;
2021/01/30 01:29:43;;;;;;;0.2;0.2;;;;;;;;;;;;;
2021/01/30 01:32:08;;;;;;;0.9;0.6;;;;;;;;;;;;;
2021/01/30 01:34:34;;;;;;;1.1;0.5;;;;;;;;;;;;;
2021/01/30 01:36:59;;;;;;;0.7;0.5;;;;;;;;;;;;;
2021/01/30 01:39:24;;;;;;;0.9;0.5;;;;;;;;;;;;;
2021/01/30 01:41:49;;;;;;;0.3;0.3;;;;;;;;;;;;;
2021/01/30 01:44:14;;;;;;;0.5;0.4;;;;;;;;;;;;;
2021/01/30 01:46:39;;;;;;;1.3;0.7;;;;;;;;;;;;;
2021/01/30 01:49:04;;;;;;;0.9;0.6;;;;;;;;;;;;;
2021/01/30 01:51:29;;;;;;;0.6;0.5;;;;;;;;;;;;;
2021/01/30 01:53:55;;;;;;;0.5;0.5;;;;;;;;;;;;;
2021/01/30 01:56:20;;;;;;;0.9;0.4;;;;;;;;;;;;;
2021/01/30 01:58:45;;;;;;;0.3;0.2;;;;;;;;;;;;;
2021/01/30 02:01:10;;;;;;;1.8;0.7;;;;;;;;;;;;;
2021/01/30 02:03:36;;;;;;;0.8;0.3;;;;;;;;;;;;;
2021/01/30 02:06:01;;;;;;;1.4;0.3;;;;;;;;;;;;;
2021/01/30 02:08:27;;;;;;;0.9;0.6;;;;;;;;;;;;;
2021/01/30 02:10:52;;;;;;;3.6;1.8;;;;;;;;;;;;;
2021/01/30 02:13:20;;;;;;;1.2;1.1;;;;;;;;;;;;;
2021/01/30 02:15:45;;;;;;;1.4;1.1;;;;;;;;;;;;;
2021/01/30 02:18:10;;;;;;;1.1;0.7;;;;;;;;;;;;;
2021/01/30 02:20:35;;;;;;;0.7;0.6;;;;;;;;;;;;;
2021/01/30 02:23:00;;;;;;;0.9;0.8;;;;;;;;;;;;;
2021/01/30 02:25:25;;;;;;;0.7;0.7;;;;;;;;;;;;;
2021/01/30 02:27:50;;;;;;;4.1;1.6;;;;;;;;;;;;;
2021/01/30 02:30:17;;;;;;;1.5;1.1;;;;;;;;;;;;;
2021/01/30 02:32:43;;;;;;;1.8;0.8;;;;;;;;;;;;;
2021/01/30 02:35:08;;;;;;;2.4;1.5;;;;;;;;;;;;;
2021/01/30 02:37:33;;;;;;;1.6;1;;;;;;;;;;;;;
2021/01/30 02:39:58;;;;;;;2.9;1.1;;;;;;;;;;;;;
2021/01/30 02:42:24;;;;;;;0.5;0.5;;;;;;;;;;;;;
2021/01/30 02:44:49;;;;;;;2.2;1.1;;;;;;;;;;;;;
2021/01/30 02:47:16;;;;;;;2.9;1.2;;;;;;;;;;;;;
2021/01/30 02:49:41;;;;;;;1.9;1;;;;;;;;;;;;;
2021/01/30 02:52:06;;;;;;;2.3;1.3;;;;;;;;;;;;;
2021/01/30 02:54:31;;;;;;;1.4;0.8;;;;;;;;;;;;;
2021/01/30 02:56:56;;;;;;;1.1;1;;;;;;;;;;;;;
2021/01/30 02:59:22;;;;;;;3.1;1;;;;;;;;;;;;;
2021/01/30 03:01:47;;;;;;;0.4;0.4;;;;;;;;;;;;;
2021/01/30 03:04:13;;;;;;;0.3;0.3;;;;;;;;;;;;;
2021/01/30 03:06:38;;;;;;;0.4;0.3;;;;;;;;;;;;;
2021/01/30 03:09:04;;;;;;;0.4;0.3;;;;;;;;;;;;;
2021/01/30 03:11:29;;;;;;;0.3;0.3;;;;;;;;;;;;;
2021/01/30 03:13:56;;;;;;;0.3;0.3;;;;;;;;;;;;;
2021/01/30 03:16:21;;;;;;;0.4;0.3;;;;;;;;;;;;;
2021/01/30 03:18:47;;;;;;;0.3;0.3;;;;;;;;;;;;;
2021/01/30 03:21:16;;;;;;;1.7;0.2;;;;;;;;;;;;;
2021/01/30 03:23:41;;;;;;;0.3;0.3;;;;;;;;;;;;;
2021/01/30 03:26:06;;;;;;;0.6;0.5;;;;;;;;;;;;;
2021/01/30 03:28:32;;;;;;;0.3;0.2;;;;;;;;;;;;;
2021/01/30 03:30:57;;;;;;;0.5;0.3;;;;;;;;;;;;;
2021/01/30 03:33:22;;;;;;;0.2;0.2;;;;;;;;;;;;;
2021/01/30 03:35:47;;;;;;;1;0.5;;;;;;;;;;;;;
2021/01/30 03:38:12;;;;;;;0.3;0.3;;;;;;;;;;;;;
2021/01/30 03:40:39;;;;;;;0.2;0.2;;;;;;;;;;;;;
2021/01/30 03:43:03;;;;;;;0.1;0.1;;;;;;;;;;;;;
2021/01/30 03:45:28;;;;;;;0.3;0.3;;;;;;;;;;;;;
2021/01/30 03:47:54;;;;;;;0.8;0.5;;;;;;;;;;;;;
2021/01/30 03:50:18;;;;;;;0.3;0.3;;;;;;;;;;;;;
2021/01/30 03:52:45;;;;;;;0.3;0.3;;;;;;;;;;;;;
2021/01/30 03:55:10;;;;;;;0.4;0.3;;;;;;;;;;;;;
2021/01/30 03:57:36;;;;;;;0.4;0.4;;;;;;;;;;;;;
2021/01/30 04:00:01;;;;;;;0.3;0.3;;;;;;;;;;;;;
2021/01/30 04:02:30;;;;;;;0.5;0.5;;;;;;;3.81;91.96484;925.4498;;;;
2021/01/30 04:04:55;;;;;;;0.2;0.2;;;;;;;3.8;92.71875;925.5588;;;;
2021/01/30 04:07:21;;;;;;;0.2;0.2;;;;;;;3.84;92.08398;925.4753;;;;
2021/01/30 04:09:46;;;;;;;0.3;0.3;;;;;;;3.89;91.29688;925.5571;;;;
2021/01/30 04:12:14;;;;;;;1;0.4;;;;;;;3.7;91.50586;925.5731;;;;
2021/01/30 04:14:39;;;;;;;0.1;0.1;;;;;;;3.71;91.66309;925.4922;;;;
2021/01/30 04:17:04;;;;;;;3.7;0.3;;;;;;;3.75;91.33691;925.4802;;;;
2021/01/30 04:19:32;;;;;;;0.3;0.3;;;;;;;3.59;92.26855;925.5005;;;;
2021/01/30 04:21:57;;;;;;;0.3;0.3;;;;;;;3.65;92.22461;925.4654;;;;
2021/01/30 04:24:25;;;;;;;0.1;0.1;;;;;;;3.75;92.03223;925.3519;;;;
2021/01/30 04:26:50;;;;;;;1;0.3;;;;;;;3.75;91.91016;925.3998;;;;
2021/01/30 04:29:16;;;;;;;1.6;0.7;;;;;;;3.76;92.19141;925.4567;;;;
2021/01/30 04:31:41;;;;;;;1.6;0.6;;;;;;;3.71;92.77539;925.5001;;;;
2021/01/30 04:34:08;;;;;;;0.4;0.4;;;;;;;3.57;92.54395;925.2711;;;;
2021/01/30 04:36:33;;;;;;;0.5;0.4;;;;;;;3.46;92.90234;925.4009;;;;
2021/01/30 04:38:59;;;;;;;0.2;0.2;;;;;;;3.4;93.41602;925.2109;;;;
2021/01/30 04:41:24;;;;;;;0.3;0.3;;;;;;;3.25;94.12305;925.2236;;;;
2021/01/30 04:43:50;;;;;;;0.1;0.1;;;;;;;3.1;95.07813;925.1739;;;;
2021/01/30 04:46:15;;;;;;;0.2;0.2;;;;;;;3.16;95.76563;925.2047;;;;
2021/01/30 04:48:40;;;;;;;0.2;0.2;;;;;;;3.22;95.86816;925.2073;;;;
2021/01/30 04:51:05;;;;;;;0.3;0.3;;;;;;;3.32;95.12891;925.242;;;;
2021/01/30 04:53:30;;;;;;;0.3;0.3;;;;;;;3.35;95.16699;925.0489;;;;
2021/01/30 04:55:55;;;;;;;1.1;0.6;;;;;;;3.34;94.50195;924.9693;;;;
2021/01/30 04:58:21;;;;;;;0.6;0.5;;;;;;;3.38;94.16406;924.9896;;;;
2021/01/30 05:00:46;;;;;;;0.7;0.6;;;;;;;3.43;93.92676;924.9449;;;;
2021/01/30 05:03:11;;;;;;;0.5;0.4;;;;;;;3.36;93.41699;924.9476;;;;
2021/01/30 05:05:36;;;;;;;1.2;0.6;;;;;;;3.4;92.95508;924.7751;;;;
2021/01/30 05:08:02;;;;;;;1.2;0.9;;;;;;;3.33;93.17773;924.7003;;;;
2021/01/30 05:10:27;;;;;;;0.8;0.5;;;;;;;3.32;93.4541;924.7472;;;;
2021/01/30 05:12:52;;;;;;;0.1;0.1;;;;;;;3.38;93.54492;924.6812;;;;
2021/01/30 05:15:17;;;;;;;0.2;0.2;;;;;;;3.38;93.25488;924.6867;;;;
2021/01/30 05:17:45;;;;;;;0.3;0.3;;;;;;;3.4;93.57324;924.661;;;;
2021/01/30 05:20:15;;;;;;;0.6;0.3;;;;;;;3.52;93.22852;924.6873;;;;
2021/01/30 05:22:40;;;;;;;0.3;0.3;;;;;;;3.57;92.9707;924.6353;;;;
2021/01/30 05:25:05;;;;;;;0.5;0.4;;;;;;;3.59;92.68457;924.6364;;;;
2021/01/30 05:27:31;;;;;;;0.5;0.5;;;;;;;3.63;92.49902;924.5561;;;;
2021/01/30 05:29:56;;;;;;;0.3;0.3;;;;;;;3.69;92.26563;924.5372;;;;
2021/01/30 05:32:22;;;;;;;0.2;0.2;;;;;;;3.65;92.60645;924.5422;;;;
2021/01/30 05:34:47;;;;;;;0.4;0.3;;;;;;;3.74;92.0957;924.4417;;;;
2021/01/30 05:37:13;;;;;;;0.4;0.4;;;;;;;3.68;92.3877;924.4316;;;;
2021/01/30 05:39:38;;;;;;;0.3;0.3;;;;;;;3.63;92.74609;924.457;;;;
2021/01/30 05:42:03;;;;;;;0.2;0.2;;;;;;;3.72;92.50977;924.4808;;;;
2021/01/30 05:44:28;;;;;;;0.3;0.3;;;;;;;3.69;92.40039;924.2853;;;;
2021/01/30 05:46:54;;;;;;;0.3;0.3;;;;;;;3.72;92.53027;924.3352;;;;
2021/01/30 05:49:19;;;;;;;0.4;0.2;;;;;;;3.78;92.3418;924.3619;;;;
2021/01/30 05:51:44;;;;;;;0.1;0.1;;;;;;;3.92;91.74316;924.36;;;;
2021/01/30 05:54:09;;;;;;;0.3;0.3;;;;;;;3.85;91.4668;924.3449;;;;
2021/01/30 05:56:34;;;;;;;0;0;;;;;;;3.82;91.79883;924.3233;;;;
2021/01/30 05:58:59;;;;;;;0.5;0.5;;;;;;;3.71;91.65137;924.3201;;;;
2021/01/30 06:01:27;;;;;;;1.3;0.9;;;;;;;3.6;92.10059;924.313;;;;
2021/01/30 06:03:52;;;;;;;3.4;2;;;;;;;3.48;92.49023;924.2297;;;;
2021/01/30 06:06:17;;;;;;;4;2.3;;;;;;;3.44;92.46875;924.322;;;;
2021/01/30 06:08:44;;;;;;;4.6;2.2;;;;;;;3.37;92.74707;924.3342;;;;
2021/01/30 06:11:11;;;;;;;1.4;1.2;;;;;;;3.4;92.6748;924.3236;;;;
2021/01/30 06:13:37;;;;;;;1.5;1.1;;;;;;;3.47;92.53125;924.2508;;;;
2021/01/30 06:16:03;;;;;;;3.5;1.9;;;;;;;3.34;92.5957;924.3212;;;;
2021/01/30 06:18:30;;;;;;;1.5;1;;;;;;;3.41;92.74414;924.3901;;;;
2021/01/30 06:20:56;;;;;;;1.3;1.1;;;;;;;3.48;92.46777;924.3862;;;;
2021/01/30 06:23:21;;;;;;;1.9;1.3;;;;;;;3.47;92.20801;924.3389;;;;
2021/01/30 06:25:48;;;;;;;2.4;2.1;;;;;;;3.29;93.10059;924.3456;;;;
2021/01/30 06:28:13;;;;;;;2.2;1.5;;;;;;;3.4;92.93262;924.2866;;;;
2021/01/30 06:30:38;;;;;;;2.4;1.6;;;;;;;3.24;93.4043;924.4071;;;;
2021/01/30 06:33:03;;;;;;;3.1;2.1;;;;;;;3.31;93.24805;924.3262;;;;
2021/01/30 06:35:28;;;;;;;3.3;2;;;;;;;3.32;93.32129;924.3611;;;;
2021/01/30 06:37:54;;;;;;;3.4;2.4;;;;;;;3.39;92.875;924.4045;;;;
2021/01/30 06:40:21;;;;;;;6.1;3.2;;;;;;;3.33;93.07422;924.358;;;;
2021/01/30 06:42:46;;;;;;;5.3;2;;;;;;;3.41;93.04688;924.3578;;;;
2021/01/30 06:45:11;;;;;;;1;0.8;;;;;;;3.42;92.93652;924.4177;;;;
2021/01/30 06:47:37;;;;;;;0.8;0.7;;;;;;;3.55;92.61621;924.3328;;;;
2021/01/30 06:50:02;;;;;;;2.9;2;;;;;;;3.49;92.30176;924.3643;;;;
2021/01/30 06:52:27;;;;;;;3.1;2.1;;;;;;;3.52;91.96094;924.3663;;;;
2021/01/30 06:54:52;;;;;;;2.4;1.5;;;;;;;3.46;92.49609;924.349;;;;
2021/01/30 06:57:17;;;;;;;2.9;1;;;;;;;3.51;92.56348;924.3583;;;;
2021/01/30 06:59:42;;;;;;;1;0.6;;;;;;;3.6;92.30469;924.3;;;;
2021/01/30 07:02:07;;;;;;;0.4;0.4;;;;;;;3.63;91.98242;924.342;;;;
2021/01/30 07:04:32;;;;;;;1.3;0.8;;;;;;;3.65;92.06738;924.3022;;;;
2021/01/30 07:06:59;;;;;;;1.3;1;;;;;;;3.81;92.06641;924.2296;;;;
2021/01/30 07:09:24;;;;;;;1.1;1;;;;;;;3.79;91.48926;924.1212;;;;
2021/01/30 07:11:49;;;;;;;0.7;0.6;;;;;;;3.69;91.5918;924.0627;;;;
2021/01/30 07:14:14;;;;;;;0.6;0.5;;;;;;;3.6;92.4502;924.0234;;;;
2021/01/30 07:16:39;;;;;;;2.3;1.3;;;;;;;3.74;92.23242;923.9852;;;;
2021/01/30 07:19:04;;;;;;;1.1;0.9;;;;;;;3.85;91.70508;923.9946;;;;
2021/01/30 07:21:30;;;;;;;1.6;1.2;;;;;;;3.77;91.83398;924.0643;;;;
2021/01/30 07:23:55;;;;;;;1.7;1.4;;;;;;;3.94;91.65527;923.9727;;;;
2021/01/30 07:26:20;;;;;;;1.8;1.3;;;;;;;4.07;91.06543;923.8783;;;;
2021/01/30 07:28:45;;;;;;;2.6;1.2;;;;;;;4.08;90.53027;923.8784;;;;
2021/01/30 07:31:10;;;;;;;3.4;0.9;;;;;;;4.24;90.21387;923.9631;;;;
2021/01/30 07:33:35;;;;;;;2.3;1;;;;;;;4.32;89.6123;923.877;;;;
2021/01/30 07:36:00;;;;;;;0.8;0.8;;;;;;;4.45;89.28906;923.8706;;;;
2021/01/30 07:38:26;;;;;;;1.7;1.1;;;;;;;4.55;88.87109;923.9102;;;;
2021/01/30 07:40:51;;;;;;;6.9;2.6;;;;;;;4.44;88.29883;923.9407;;;;
2021/01/30 07:43:18;;;;;;;7.6;3.6;;;;;;;4.27;89.45605;923.8578;;;;
2021/01/30 07:45:44;;;;;;;7.7;3;;;;;;;4.15;90.20605;923.872;;;;
2021/01/30 07:48:10;;;;;;;11.1;4.8;;;;;;;4.19;90.08008;923.8614;;;;
2021/01/30 07:50:36;;;;;;;9.3;4.7;;;;;;;4.24;90;923.8283;;;;
2021/01/30 07:53:01;;;;;;;7.7;3.5;;;;;;;4.42;89.56543;923.7545;;;;
2021/01/30 07:55:26;;;;;;;4.4;2.4;;;;;;;4.54;88.92773;923.8675;;;;
2021/01/30 07:57:56;;;;;;;4.9;2.7;;;;;;;4.39;88.89551;923.806;;;;
2021/01/30 08:00:16;;;;;;;2.9;1.9;;;;;;;4.37;89.18457;923.7192;;;;
2021/01/30 08:02:42;;;;;;;11.2;5.1;;;;;;;4.51;89.66309;923.8081;;;;
2021/01/30 08:05:07;;;;;;;3.4;2.1;;;;;;;4.57;89.125;923.707;;;;
2021/01/30 08:07:32;;;;;;;4.4;2.3;;;;;;;4.66;89.18652;923.7583;;;;
2021/01/30 08:09:57;;;;;;;4.4;2.1;;;;;;;4.76;88.9707;923.6984;;;;
2021/01/30 08:12:22;;;;;;;6.2;2.8;;;;;;;4.96;87.71777;923.6583;;;;
2021/01/30 08:14:50;;;;;;;7.3;3.1;;;;;;;4.87;87.95898;923.616;;;;
2021/01/30 08:17:15;;;;;;;6.2;3.3;;;;;;;5.03;87.47363;923.5518;;;;
2021/01/30 08:19:40;;;;;;;4.5;3.5;;;;;;;5.11;87.25195;923.5056;;;;
2021/01/30 08:22:05;;;;;;;9.6;4.4;;;;;;;5.34;86.91406;923.4054;;;;
2021/01/30 08:24:34;;;;;;;11.1;5.3;;;;;;;5.59;85.97461;923.3222;;;;
2021/01/30 08:26:58;;;;;;;8;3.7;;;;;;;5.7;85.18359;923.3647;;;;
2021/01/30 08:29:23;;;;;;;10.9;5.5;;;;;;;5.78;84.88281;923.414;;;;
2021/01/30 08:31:48;;;;;;;7;3.6;;;;;;;6.1;84.12109;923.2426;;;;
2021/01/30 08:34:13;;;;;;;4.3;2.3;;;;;;;6.36;82.74609;923.3016;;;;
2021/01/30 08:36:39;;;;;;;4;2.3;;;;;;;6.28;82.31348;923.2874;;;;
2021/01/30 08:39:04;;;;;;;8.2;4.2;;;;;;;6.11;82.91309;923.2656;;;;
2021/01/30 08:41:29;;;;;;;4.8;2.7;;;;;;;5.95;83.67285;923.2247;;;;
2021/01/30 08:43:55;;;;;;;6.4;3.7;;;;;;;6.25;83.41602;923.2321;;;;
2021/01/30 08:46:20;;;;;;;13.9;4.7;;;;;;;6.82;81.21777;923.0659;;;;
2021/01/30 08:48:45;;;;;;;7.1;3.6;;;;;;;7.61;77.6582;923.1409;;;;
2021/01/30 08:51:10;;;;;;;12.2;8.1;;;;;;;8.13;74.3584;923.1904;;;;
2021/01/30 08:53:35;;;;;;;15.1;9.1;;;;;;;8.55;72.60059;923.1606;;;;
2021/01/30 08:56:01;;;;;;;3.6;2.3;;;;;;;9.32;70.79395;923.1794;;;;
2021/01/30 08:58:26;;;;;;;37.5;21.1;;;;;;;9.6;68.1875;922.9955;;;;
2021/01/30 09:00:51;;;;;;;13.2;7.4;;;;;;;9.53;68.49414;923.063;;;;
2021/01/30 09:03:16;;;;;;;2.5;1.4;;;;;;;10.06;67.89453;923.2219;;;;
2021/01/30 09:05:41;;;;;;;1.5;1.1;;;;;;;10.59;64.89355;923.1677;;;;
2021/01/30 09:08:06;;;;;;;18.2;9.4;;;;;;;10.28;65.39551;923.1726;;;;
2021/01/30 09:10:33;;;;;;;20.1;12.5;;;;;;;8.96;69.66699;923.2395;;;;
2021/01/30 09:12:56;;;;;;;16.6;9.8;;;;;;;8.98;70.66016;923.2155;;;;
2021/01/30 09:15:21;;;;;;;30.9;17.9;;;;;;;8.64;71.2168;923.1817;;;;
2021/01/30 09:17:49;;;;;;;13.2;4.9;;;;;;;7.86;72.33691;923.1583;;;;
2021/01/30 09:20:15;;;;;;;11.8;6.9;;;;;;;7.86;74.08398;923.1227;;;;
2021/01/30 09:22:40;;;;;;;15.5;11;;;;;;;7.77;73.8418;923.1275;;;;
2021/01/30 09:25:08;;;;;;;5.1;3;;;;;;;7.74;74.97168;923.149;;;;
2021/01/30 09:27:35;;;;;;;10.2;6.2;;;;;;;7.44;76.09668;923.0731;;;;
2021/01/30 09:30:01;;;;;;;2.5;1;;;;;;;7.42;76.65137;923.0455;;;;
2021/01/30 09:32:26;;;;;;;1.6;1.5;;;;;;;7.65;76.62109;922.9942;;;;
2021/01/30 09:34:51;;;;;;;0.8;0.6;;;;;;;7.7;76.72363;923.0122;;;;
2021/01/30 09:37:16;;;;;;;0.9;0.6;;;;;;;7.75;75.42676;922.9779;;;;
2021/01/30 09:39:41;;;;;;;0.5;0.4;;;;;;;7.84;73.55762;923.0023;;;;
2021/01/30 09:42:06;;;;;;;14.4;10.4;;;;;;;7.87;72.55371;922.8452;;;;
2021/01/30 09:44:31;;;;;;;0.9;0.9;;;;;;;8.05;73.37891;922.8317;;;;
2021/01/30 09:46:57;;;;;;;0.6;0.4;;;;;;;8.23;73.94336;922.8309;;;;
2021/01/30 09:49:23;;;;;;;3.6;0.5;;;;;;;8.5;74.19336;922.7977;;;;
2021/01/30 09:51:48;;;;;;;0.3;0.3;;;;;;;8.47;72.04102;922.7742;;;;
2021/01/30 09:54:15;;;;;;;0.3;0.2;;;;;;;8.41;72.19141;922.7841;;;;
2021/01/30 09:56:40;;;;;;;0.6;0.5;;;;;;;8.41;73.77051;922.7278;;;;
2021/01/30 09:59:05;;;;;;;0.2;0.2;;;;;;;8.55;70.13379;922.7068;;;;
2021/01/30 10:01:31;;;;;;;0.3;0.2;;;;;;;8.62;70.06641;922.6907;;;;
2021/01/30 10:04:00;;;;;;;0.3;0.2;;;;;;;8.83;70.90723;922.6479;;;;
2021/01/30 10:06:24;;;;;;;0.4;0.4;;;;;;;9.13;70.10449;922.6181;;;;
2021/01/30 10:08:50;;;;;;;1.2;0.6;;;;;;;9.37;70.00586;922.4736;;;;
2021/01/30 10:11:16;;;;;;;1.2;0.3;;;;;;;9.71;68.82129;922.4078;;;;
2021/01/30 10:13:41;;;;;;;0.5;0.4;;;;;;;9.86;67.44141;922.4244;;;;
2021/01/30 10:16:07;;;;;;;0.3;0.3;;;;;;;9.95;66.62207;922.3692;;;;
2021/01/30 10:18:32;;;;;;;0.3;0.3;;;;;;;10.16;66.44922;922.2654;;;;
2021/01/30 10:21:01;;;;;;;1;0.7;;;;;;;9.74;64.32227;922.2064;;;;
2021/01/30 10:23:25;;;;;;;0.5;0.3;;;;;;;9.65;65.0498;922.1766;;;;
2021/01/30 10:25:53;;;;;;;0.2;0.2;;;;;;;10.13;66.06934;922.1075;;;;
2021/01/30 10:28:18;;;;;;;2.2;1.2;;;;;;;10.45;63.99512;922.0947;;;;
2021/01/30 10:30:53;;;;;;;3.3;0.9;;;;;;;10.69;63.58398;922.1077;;;;
2021/01/30 10:33:23;;;;;;;1.3;0.9;;;;;;;10.84;62.85254;922.0838;;;;
2021/01/30 10:35:52;;;;;;;0.9;0.6;;;;;;;10.39;64.12207;922.085;;;;
2021/01/30 10:38:20;;;;;;;3.6;1.4;;;;;;;10.38;64.72559;922.0717;;;;
2021/01/30 10:40:49;;;;;;;1.6;0.8;;;;;;;10.1;64.68359;922.0286;;;;
2021/01/30 10:43:14;;;;;;;4.2;3.1;;;;;;;9.74;66.4873;922.0371;;;;
2021/01/30 10:45:42;;;;;;;3.8;1.7;;;;;;;9.79;66.72266;921.8792;;;;
2021/01/30 10:48:08;;;;;;;1.5;1.1;;;;;;;10;66.91602;921.9105;;;;
2021/01/30 10:50:34;;;;;;;2.2;1.6;;;;;;;10.22;67.50781;921.8436;;;;
2021/01/30 10:52:59;;;;;;;6.9;3.7;;;;;;;9.9;66.69531;921.8117;;;;
2021/01/30 10:55:24;;;;;;;2.4;0.8;;;;;;;10.24;66.62207;921.7597;;;;
2021/01/30 10:57:49;;;;;;;1.4;0.6;;;;;;;10.53;66.42773;921.6898;;;;
2021/01/30 11:00:20;;;;;;;1.7;0.8;;;;;;;11.11;64.45801;921.6777;;;;
2021/01/30 11:02:45;;;;;;;0.5;0.3;;;;;;;11.56;62.87695;921.5072;;;;
2021/01/30 11:05:16;;;;;;;2.9;0.7;;;;;;;11.98;62.04395;921.4758;;;;
2021/01/30 11:07:45;;;;;;;1.2;0.6;;;;;;;12.33;60.47949;921.4653;;;;
2021/01/30 11:10:11;;;;;;;1.2;0.4;;;;;;;12.03;62.69336;921.5281;;;;
2021/01/30 11:12:36;;;;;;;0.9;0.7;;;;;;;12.16;62.48242;921.5084;;;;
2021/01/30 11:15:06;;;;;;;2.9;0.5;;;;;;;12.41;60.32813;921.5154;;;;
2021/01/30 11:17:35;;;;;;;0.5;0.5;;;;;;;12.57;58.35547;921.4741;;;;
2021/01/30 11:19:59;;;;;;;1.4;1.3;;;;;;;12.46;57.69727;921.3884;;;;
2021/01/30 11:22:29;;;;;;;1.7;0.6;;;;;;;11.68;59.79199;921.4197;;;;
2021/01/30 11:25:00;;;;;;;0.2;0.2;;;;;;;11.7;59.50977;921.3331;;;;
2021/01/30 11:27:28;;;;;;;0.9;0.5;;;;;;;11.91;59.2041;921.3649;;;;
2021/01/30 11:29:54;;;;;;;1.9;0.9;;;;;;;11.77;57.49121;921.3315;;;;
2021/01/30 11:32:19;;;;;;;0.4;0.3;;;;;;;11.39;57.44141;921.2747;;;;
2021/01/30 11:34:44;;;;;;;1.6;0.3;;;;;;;11.19;57.30078;921.2299;;;;
2021/01/30 11:37:09;;;;;;;0.5;0.3;;;;;;;10.61;59.22168;921.1752;;;;
2021/01/30 11:39:37;;;;;;;0.5;0.4;;;;;;;10.93;60.06738;921.1648;;;;
2021/01/30 11:42:02;;;;;;;0.4;0.4;;;;;;;10.97;61.69531;921.1448;;;;
2021/01/30 11:44:27;;;;;;;0.4;0.3;;;;;;;11.09;60.20215;921.2241;;;;
2021/01/30 11:46:52;;;;;;;0.4;0.4;;;;;;;10.93;59.43848;921.195;;;;
2021/01/30 11:49:17;;;;;;;1.9;0.8;;;;;;;11.31;58.9502;921.2406;;;;
2021/01/30 11:51:45;;;;;;;0.9;0.4;;;;;;;11;58.54297;921.2305;;;;
2021/01/30 11:54:16;;;;;;;1.6;1.3;;;;;;;11.07;59.36426;921.2133;;;;
2021/01/30 11:56:44;;;;;;;4.3;0.9;;;;;;;10.32;61.4541;921.1617;;;;
2021/01/30 11:59:11;;;;;;;1.9;0.6;;;;;;;10.13;61.54102;921.1819;;;;
2021/01/30 12:01:35;;;;;;;0.5;0.5;;;;;;;10.87;59.30273;921.1788;;;;
2021/01/30 12:04:02;;;;;;;2.2;1.1;;;;;;;11.36;58.20313;921.1797;;;;
2021/01/30 12:06:27;;;;;;;0.3;0.3;;;;;;;11.89;58.61816;921.0892;;;;
2021/01/30 12:08:54;;;;;;;0.8;0.5;;;;;;;11.97;56.41797;921.0698;;;;
2021/01/30 12:11:19;;;;;;;1.6;1.1;;;;;;;12.13;57.49316;921.0072;;;;
2021/01/30 12:13:45;;;;;;;1.5;0.8;;;;;;;11.89;59.95801;920.9281;;;;
2021/01/30 12:16:10;;;;;;;3;1.9;;;;;;;11.7;60.41309;920.8237;;;;
2021/01/30 12:18:36;;;;;;;1.8;0.9;;;;;;;11.67;58.36133;920.7222;;;;
2021/01/30 12:21:02;;;;;;;0.9;0.6;;;;;;;11.71;57.40332;920.7078;;;;
2021/01/30 12:23:28;;;;;;;1.9;0.5;;;;;;;11.54;57.38184;920.7321;;;;
2021/01/30 12:25:53;;;;;;;0.1;0.1;;;;;;;11.45;56.04102;920.6155;;;;
2021/01/30 12:28:18;;;;;;;0.2;0.2;;;;;;;11.51;55.94629;920.6125;;;;
2021/01/30 12:30:47;;;;;;;2.1;0.5;;;;;;;11.35;55.28418;920.7385;;;;
2021/01/30 12:33:12;;;;;;;7.6;4.2;;;;;;;11.13;57.30469;920.6313;;;;
2021/01/30 12:35:38;;;;;;;6;3.3;;;;;;;11.24;59.46777;920.7155;;;;
2021/01/30 12:38:03;;;;;;;4.9;2.6;;;;;;;11.32;58.92969;920.6802;;;;
2021/01/30 12:40:30;;;;;;;9.1;3.6;;;;;;;11.41;58.8623;920.6537;;;;
2021/01/30 12:42:55;;;;;;;6.7;2.7;;;;;;;11.52;59.3916;920.7358;;;;
2021/01/30 12:45:20;;;;;;;1.9;0.8;;;;;;;11.57;56.8125;920.7752;;;;
2021/01/30 12:47:46;;;;;;;0.7;0.5;;;;;;;11.34;56.51855;920.6639;;;;
2021/01/30 12:50:12;;;;;;;1.8;1.1;;;;;;;11.45;58.80957;920.6841;;;;
2021/01/30 12:52:38;;;;;;;1.3;0.3;;;;;;;11.57;58.72559;920.642;;;;
2021/01/30 12:55:03;;;;;;;0.7;0.7;;;;;;;11.57;60.85449;920.6548;;;;
2021/01/30 12:57:30;;;;;;;1;0.6;;;;;;;11.41;62.43164;920.6113;;;;
2021/01/30 12:59:55;;;;;;;0.9;0.7;;;;;;;10.97;61.92188;920.5327;;;;
2021/01/30 13:02:20;;;;;;;3.3;0.9;;;;;;;10.96;62.80078;920.4628;;;;
2021/01/30 13:04:45;;;;;;;1.6;0.7;;;;;;;10.85;62.36133;920.4938;;;;
2021/01/30 13:07:15;;;;;;;1.2;0.9;;;;;;;10.59;62.85156;920.4847;;;;
2021/01/30 13:09:40;;;;;;;1.5;0.8;;;;;;;10.42;61.93457;920.4324;;;;
2021/01/30 13:12:10;;;;;;;0.2;0.2;;;;;;;10.38;60.57129;920.4495;;;;
2021/01/30 13:14:30;;;;;;;0.7;0.3;;;;;;;10.53;61.10645;920.3992;;;;
2021/01/30 13:16:56;;;;;;;0.4;0.4;;;;;;;10.53;62.52246;920.3427;;;;
2021/01/30 13:19:21;;;;;;;1;0.9;;;;;;;10.52;65.69336;920.3541;;;;
2021/01/30 13:21:53;;;;;;;2.8;0.9;;;;;;;10.46;66.33594;920.3018;;;;
2021/01/30 13:24:20;;;;;;;0.5;0.4;;;;;;;9.91;66.96973;920.2695;;;;
2021/01/30 13:26:46;;;;;;;0.5;0.5;;;;;;;9.81;64.92578;920.1583;;;;
2021/01/30 13:29:16;;;;;;;1.1;0.7;;;;;;;9.59;68.33398;920.2504;;;;
2021/01/30 13:31:41;;;;;;;0.8;0.6;;;;;;;9.52;66.38574;920.2793;;;;
2021/01/30 13:34:14;;;;;;;0.1;0.1;;;;;;;9.66;63.39941;920.1638;;;;
2021/01/30 13:36:44;;;;;;;1.4;1;;;;;;;9.57;63.8291;920.1594;;;;
2021/01/30 13:39:14;;;;;;;0.7;0.7;;;;;;;9.18;68.48438;920.0172;;;;
2021/01/30 13:41:45;;;;;;;2.6;0.8;;;;;;;9.28;69.17188;920.0906;;;;
2021/01/30 13:44:10;;;;;;;2.7;0.6;;;;;;;9.39;68.16406;920.0444;;;;
2021/01/30 13:46:35;;;;;;;2.3;0.8;;;;;;;9.39;68.97461;920.0634;;;;
2021/01/30 13:49:02;;;;;;;0.7;0.5;;;;;;;9.28;66.65723;920.0556;;;;
2021/01/30 13:51:27;;;;;;;0.6;0.6;;;;;;;9.3;66.2373;920.0665;;;;
2021/01/30 13:53:54;;;;;;;2;0.9;;;;;;;9.2;68.78418;920.0215;;;;
2021/01/30 13:56:20;;;;;;;0.5;0.5;;;;;;;9.11;70.375;920.0292;;;;
2021/01/30 13:58:47;;;;;;;2.6;0.8;;;;;;;8.91;72.02441;920.0192;;;;
2021/01/30 14:01:12;;;;;;;0.8;0.6;;;;;;;8.69;72.61523;920.0511;;;;
2021/01/30 14:03:38;;;;;;;0.9;0.6;;;;;;;8.55;72.10059;920.0353;;;;
2021/01/30 14:06:03;;;;;;;0.4;0.4;;;;;;;8.38;74.03809;920.037;;;;
2021/01/30 14:08:31;;;;;;;0.5;0.5;;;;;;;8.43;74.30762;919.99;;;;
2021/01/30 14:10:58;;;;;;;0.4;0.4;;;;;;;8.42;73.96484;919.9291;;;;
2021/01/30 14:13:25;;;;;;;0.2;0.2;;;;;;;8.42;74.52148;919.9878;;;;
2021/01/30 14:15:52;;;;;;;0.3;0.2;;;;;;;8.5;74.125;919.9123;;;;
2021/01/30 14:18:18;;;;;;;0.6;0.3;;;;;;;8.47;74.97266;919.8825;;;;
2021/01/30 14:20:43;;;;;;;0.6;0.6;;;;;;;8.25;76.68359;919.8585;;;;
2021/01/30 14:23:08;;;;;;;5.6;0.3;;;;;;;8.22;76.84766;919.8025;;;;
2021/01/30 14:25:36;;;;;;;0.1;0.1;;;;;;;8.22;77.11035;919.7819;;;;
2021/01/30 14:28:04;;;;;;;0.2;0.2;;;;;;;8.35;76.51953;919.8005;;;;
2021/01/30 14:30:29;;;;;;;6.9;0.7;;;;;;;8.44;75.78613;919.7488;;;;
2021/01/30 14:32:55;;;;;;;0.4;0.4;;;;;;;8.45;75.46973;919.7534;;;;
2021/01/30 14:35:20;;;;;;;1.6;1.1;;;;;;;8.44;75.28809;919.717;;;;
2021/01/30 14:37:48;;;;;;;0.9;0.6;;;;;;;8.34;75.26855;919.7244;;;;
2021/01/30 14:40:14;;;;;;;1.1;0.9;;;;;;;8.06;76.07129;919.6685;;;;
2021/01/30 14:42:43;;;;;;;1.3;1.2;;;;;;;8.08;77.32324;919.5954;;;;
2021/01/30 14:45:09;;;;;;;2.1;1.1;;;;;;;8.06;77.7627;919.6526;;;;
2021/01/30 14:47:34;;;;;;;1.3;0.9;;;;;;;7.84;78.89258;919.5875;;;;
2021/01/30 14:49:59;;;;;;;2.5;1;;;;;;;7.61;78.44141;919.6133;;;;
2021/01/30 14:52:24;;;;;;;2.3;1.6;;;;;;;7.54;78.54102;919.5377;;;;
2021/01/30 14:54:49;;;;;;;2.8;1.7;;;;;;;7.55;78.2832;919.5336;;;;
2021/01/30 14:57:18;;;;;;;2.8;1.9;;;;;;;7.6;79.2334;919.5538;;;;
2021/01/30 14:59:43;;;;;;;3.9;1.3;;;;;;;7.67;79.38281;919.5541;;;;
2021/01/30 15:02:12;;;;;;;0.7;0.7;;;;;;;7.72;78.84668;919.51;;;;
2021/01/30 15:04:36;;;;;;;2;1;;;;;;;7.73;78.84766;919.4339;;;;
2021/01/30 15:07:02;;;;;;;1.4;1;;;;;;;7.75;78.04785;919.3773;;;;
2021/01/30 15:09:28;;;;;;;1.9;0.8;;;;;;;7.73;78.69043;919.3522;;;;
2021/01/30 15:11:54;;;;;;;1.3;0.9;;;;;;;7.64;78.94629;919.3152;;;;
2021/01/30 15:14:19;;;;;;;1.2;1.1;;;;;;;7.51;78.9668;919.2949;;;;
2021/01/30 15:16:46;;;;;;;0.8;0.8;;;;;;;7.47;78.62012;919.3008;;;;
2021/01/30 15:19:11;;;;;;;0.5;0.5;;;;;;;7.22;79.31055;919.1858;;;;
2021/01/30 15:21:41;;;;;;;0.5;0.5;;;;;;;7.29;79.13086;919.2341;;;;
2021/01/30 15:24:10;;;;;;;36.4;16.6;;;;;;;7.17;80.20801;919.2595;;;;
2021/01/30 15:26:35;;;;;;;3.5;1.6;;;;;;;7.06;80.91309;919.2548;;;;
2021/01/30 15:29:05;;;;;;;5.4;2.1;;;;;;;6.94;81.48926;919.2541;;;;
2021/01/30 15:31:30;;;;;;;2.6;1.3;;;;;;;6.9;81.60645;919.2045;;;;
2021/01/30 15:33:56;;;;;;;1.1;1;;;;;;;6.96;81.44922;919.1716;;;;
2021/01/30 15:36:21;;;;;;;3.8;2.4;;;;;;;6.98;80.81641;919.1231;;;;
2021/01/30 15:38:50;;;;;;;1.5;1.1;;;;;;;7.03;80.67773;919.1025;;;;